Time;durP1;ratioP1;P1;durP2;ratioP2;P2;SDS_P1;SDS_P2;PMS_P1;PMS_P2;Temp;Humidity;BMP_temperature;BMP_pressure;BME280_temperature;BME280_humidity;BME280_pressure;Samples;Min_cycle;Max_cycle;Signal;HPM_P1;HPM_P2
2022/03/15 00:01:03;;;;;;;;;;;21.00;28.30;;;;;;484348;246;1359;-39
2022/03/15 00:03:05;;;;;;;;;;;21.00;28.20;;;;;;484253;246;2129;-39
2022/03/15 00:05:06;;;;;;;;;;;21.00;28.20;;;;;;484349;246;1286;-39
2022/03/15 00:07:10;;;;;;;;;;;21.00;28.30;;;;;;484206;246;1236;-39
2022/03/15 00:09:09;;;;;;;;;;;21.00;28.30;;;;;;484157;246;2166;-39
2022/03/15 00:11:10;;;;;;;;;;;21.00;28.30;;;;;;484288;246;1362;-39
2022/03/15 00:13:11;;;;;;;;;;;21.00;28.30;;;;;;484714;246;1032;-39
2022/03/15 00:15:13;;;;;;;;;;;20.90;28.30;;;;;;484731;246;964;-39
2022/03/15 00:17:14;;;;;;;;;;;21.00;28.30;;;;;;484267;246;1106;-39
2022/03/15 00:19:15;;;;;;;;;;;21.00;28.30;;;;;;484273;246;1046;-39
2022/03/15 00:21:18;;;;;;;;;;;21.00;28.20;;;;;;484280;246;1162;-39
2022/03/15 00:23:18;;;;;;;;;;;21.00;28.30;;;;;;484635;246;2307;-39
2022/03/15 00:25:19;;;;;;;;;;;21.00;28.20;;;;;;484376;246;1148;-39
2022/03/15 00:27:21;;;;;;;;;;;21.00;28.20;;;;;;484670;246;973;-39
2022/03/15 00:29:23;;;;;;;;;;;21.00;28.30;;;;;;484617;246;1231;-39
2022/03/15 00:31:24;;;;;;;;;;;21.00;28.30;;;;;;484584;246;1044;-39
2022/03/15 00:33:25;;;;;;;;;;;21.00;28.30;;;;;;484705;246;1064;-39
2022/03/15 00:35:27;;;;;;;;;;;21.00;28.30;;;;;;484291;246;1018;-39
2022/03/15 00:37:28;;;;;;;;;;;21.00;28.20;;;;;;484451;246;1118;-39
2022/03/15 00:39:29;;;;;;;;;;;21.00;28.30;;;;;;484323;246;1022;-39
2022/03/15 00:41:30;;;;;;;;;;;21.00;28.30;;;;;;484141;246;1176;-39
2022/03/15 00:43:32;;;;;;;;;;;21.00;28.30;;;;;;484447;246;2183;-39
2022/03/15 00:45:34;;;;;;;;;;;21.00;28.30;;;;;;484450;246;1154;-39
2022/03/15 00:47:35;;;;;;;;;;;21.00;28.30;;;;;;484466;246;1149;-39
2022/03/15 00:49:36;;;;;;;;;;;21.00;28.30;;;;;;484669;246;1078;-39
2022/03/15 00:51:37;;;;;;;;;;;20.90;28.30;;;;;;484258;246;1229;-39
2022/03/15 00:53:39;;;;;;;;;;;21.00;28.30;;;;;;484275;246;1082;-39
2022/03/15 00:55:40;;;;;;;;;;;21.00;28.30;;;;;;484337;246;1097;-39
2022/03/15 00:57:41;;;;;;;;;;;21.00;28.40;;;;;;484726;246;1034;-39
2022/03/15 00:59:43;;;;;;;;;;;21.00;28.30;;;;;;484431;246;1089;-39
2022/03/15 01:01:44;;;;;;;;;;;20.90;28.30;;;;;;484228;241;2214;-39
2022/03/15 01:03:45;;;;;;;;;;;20.90;28.30;;;;;;484258;246;1055;-39
2022/03/15 01:05:47;;;;;;;;;;;21.00;28.30;;;;;;484692;246;1011;-39
2022/03/15 01:07:48;;;;;;;;;;;21.00;28.30;;;;;;484199;246;1224;-39
2022/03/15 01:09:49;;;;;;;;;;;20.90;28.30;;;;;;484670;246;1071;-39
2022/03/15 01:11:51;;;;;;;;;;;20.90;28.30;;;;;;484349;246;1037;-39
2022/03/15 01:13:52;;;;;;;;;;;21.00;28.30;;;;;;484465;246;1110;-39
2022/03/15 01:15:53;;;;;;;;;;;21.00;28.30;;;;;;484698;246;1234;-39
2022/03/15 01:17:55;;;;;;;;;;;21.00;28.30;;;;;;484493;246;1073;-39
2022/03/15 01:19:56;;;;;;;;;;;21.00;28.30;;;;;;484266;246;1051;-39
2022/03/15 01:21:58;;;;;;;;;;;21.00;28.30;;;;;;484657;246;2128;-39
2022/03/15 01:23:59;;;;;;;;;;;21.00;28.30;;;;;;484681;246;1531;-39
2022/03/15 01:26:00;;;;;;;;;;;21.00;28.30;;;;;;484373;246;983;-39
2022/03/15 01:28:01;;;;;;;;;;;21.00;28.30;;;;;;484348;246;1100;-39
2022/03/15 01:30:02;;;;;;;;;;;21.00;28.30;;;;;;484727;246;1111;-39
2022/03/15 01:32:04;;;;;;;;;;;21.00;28.30;;;;;;484379;246;1108;-39
2022/03/15 01:34:05;;;;;;;;;;;21.00;28.30;;;;;;484223;246;1059;-39
2022/03/15 01:36:06;;;;;;;;;;;21.00;28.30;;;;;;484668;246;1042;-39
2022/03/15 01:38:08;;;;;;;;;;;21.00;28.30;;;;;;484274;246;1106;-39
2022/03/15 01:40:09;;;;;;;;;;;21.00;28.30;;;;;;484610;246;1052;-39
2022/03/15 01:42:10;;;;;;;;;;;20.90;28.30;;;;;;484220;246;2125;-39
2022/03/15 01:44:12;;;;;;;;;;;21.00;28.30;;;;;;484656;246;1109;-39
2022/03/15 01:46:13;;;;;;;;;;;21.00;28.40;;;;;;484262;246;1044;-39
2022/03/15 01:48:15;;;;;;;;;;;21.00;28.30;;;;;;484623;246;1067;-39
2022/03/15 01:50:16;;;;;;;;;;;21.00;28.30;;;;;;484523;246;1060;-39
2022/03/15 01:52:17;;;;;;;;;;;20.90;28.30;;;;;;484383;246;1288;-39
2022/03/15 01:54:20;;;;;;;;;;;20.90;28.40;;;;;;484557;246;1093;-39
2022/03/15 01:56:21;;;;;;;;;;;20.90;28.30;;;;;;484234;246;1095;-39
2022/03/15 01:58:22;;;;;;;;;;;21.00;28.30;;;;;;484281;246;1032;-39
2022/03/15 02:00:24;;;;;;;;;;;21.00;28.30;;;;;;484311;246;1090;-39
2022/03/15 02:02:25;;;;;;;;;;;20.90;28.30;;;;;;484724;246;2195;-39
2022/03/15 02:04:26;;;;;;;;;;;21.00;28.40;;;;;;484634;246;1090;-39
2022/03/15 02:06:28;;;;;;;;;;;20.90;28.40;;;;;;484670;246;1026;-39
2022/03/15 02:08:29;;;;;;;;;;;21.00;28.40;;;;;;484396;246;1213;-39
2022/03/15 02:10:30;;;;;;;;;;;20.90;28.30;;;;;;484623;246;1058;-39
2022/03/15 02:12:32;;;;;;;;;;;21.00;28.40;;;;;;484263;246;1247;-39
2022/03/15 02:14:33;;;;;;;;;;;21.00;28.40;;;;;;484705;246;1152;-39
2022/03/15 02:16:34;;;;;;;;;;;21.00;28.30;;;;;;484184;246;1285;-39
2022/03/15 02:18:35;;;;;;;;;;;21.00;28.30;;;;;;484369;246;1055;-39
2022/03/15 02:20:37;;;;;;;;;;;21.00;28.30;;;;;;484245;246;1051;-39
2022/03/15 02:22:38;;;;;;;;;;;21.00;28.30;;;;;;484204;246;2128;-39
2022/03/15 02:24:39;;;;;;;;;;;21.00;28.30;;;;;;484391;246;1078;-39
2022/03/15 02:26:41;;;;;;;;;;;21.00;28.40;;;;;;484675;246;1118;-39
2022/03/15 02:28:43;;;;;;;;;;;20.90;28.30;;;;;;484694;246;1081;-39
2022/03/15 02:30:43;;;;;;;;;;;21.00;28.40;;;;;;484669;246;1168;-39
2022/03/15 02:32:47;;;;;;;;;;;21.00;28.40;;;;;;484402;246;1252;-39
2022/03/15 02:34:46;;;;;;;;;;;21.00;28.40;;;;;;484073;246;2102;-39
2022/03/15 02:36:47;;;;;;;;;;;20.90;28.40;;;;;;484412;246;1129;-39
2022/03/15 02:38:49;;;;;;;;;;;20.90;28.30;;;;;;484458;246;1151;-39
2022/03/15 02:40:50;;;;;;;;;;;21.00;28.40;;;;;;484295;246;1255;-39
2022/03/15 02:42:51;;;;;;;;;;;21.00;28.40;;;;;;484691;246;2196;-39
2022/03/15 02:44:53;;;;;;;;;;;21.00;28.40;;;;;;484714;246;1026;-39
2022/03/15 02:46:54;;;;;;;;;;;21.00;28.40;;;;;;484328;246;1032;-39
2022/03/15 02:48:55;;;;;;;;;;;20.90;28.40;;;;;;484730;246;1141;-39
2022/03/15 02:51:06;;;;;;;;;;;20.90;28.40;;;;;;484235;246;1244;-39
2022/03/15 02:52:58;;;;;;;;;;;21.00;28.30;;;;;;483970;242;2188;-39
2022/03/15 02:54:59;;;;;;;;;;;21.00;28.40;;;;;;484354;246;1020;-39
2022/03/15 02:57:01;;;;;;;;;;;21.00;28.40;;;;;;484658;246;962;-39
2022/03/15 02:59:03;;;;;;;;;;;20.90;28.40;;;;;;484250;246;2055;-39
2022/03/15 03:01:03;;;;;;;;;;;20.90;28.40;;;;;;484659;246;2426;-39
2022/03/15 03:03:05;;;;;;;;;;;20.90;28.40;;;;;;484445;246;2124;-39
2022/03/15 03:05:06;;;;;;;;;;;21.00;28.40;;;;;;484281;246;962;-39
2022/03/15 03:07:07;;;;;;;;;;;21.00;28.40;;;;;;484657;246;1066;-39
2022/03/15 03:09:08;;;;;;;;;;;21.00;28.40;;;;;;484544;246;1201;-39
2022/03/15 03:11:10;;;;;;;;;;;21.00;28.40;;;;;;484238;246;1043;-39
2022/03/15 03:13:11;;;;;;;;;;;21.00;28.40;;;;;;484327;246;1092;-39
2022/03/15 03:15:12;;;;;;;;;;;21.00;28.40;;;;;;484723;246;1023;-39
2022/03/15 03:17:14;;;;;;;;;;;21.00;28.40;;;;;;484253;246;987;-39
2022/03/15 03:19:15;;;;;;;;;;;20.90;28.40;;;;;;484690;246;1031;-39
2022/03/15 03:21:16;;;;;;;;;;;21.00;28.40;;;;;;484393;246;1118;-39
2022/03/15 03:23:18;;;;;;;;;;;20.90;28.40;;;;;;484264;246;2180;-39
2022/03/15 03:25:19;;;;;;;;;;;20.90;28.40;;;;;;484706;246;1071;-39
2022/03/15 03:27:20;;;;;;;;;;;20.90;28.40;;;;;;484247;246;1284;-39
2022/03/15 03:29:22;;;;;;;;;;;21.00;28.40;;;;;;484556;246;1040;-39
2022/03/15 03:31:23;;;;;;;;;;;21.00;28.40;;;;;;484413;246;1545;-39
2022/03/15 03:33:25;;;;;;;;;;;20.90;28.40;;;;;;484728;246;988;-39
2022/03/15 03:35:27;;;;;;;;;;;21.00;28.40;;;;;;484174;246;1676;-39
2022/03/15 03:37:27;;;;;;;;;;;21.00;28.50;;;;;;484185;246;2136;-39
2022/03/15 03:39:28;;;;;;;;;;;20.90;28.40;;;;;;484455;246;1142;-39
2022/03/15 03:41:29;;;;;;;;;;;21.00;28.50;;;;;;484488;246;1021;-39
2022/03/15 03:43:31;;;;;;;;;;;21.00;28.40;;;;;;484658;246;2200;-39
2022/03/15 03:45:32;;;;;;;;;;;20.90;28.40;;;;;;484654;246;1013;-39
2022/03/15 03:47:33;;;;;;;;;;;21.00;28.40;;;;;;484202;246;1280;-39
2022/03/15 03:49:35;;;;;;;;;;;21.00;28.40;;;;;;484271;246;1067;-39
2022/03/15 03:51:37;;;;;;;;;;;20.90;28.40;;;;;;484689;245;1377;-39
2022/03/15 03:53:38;;;;;;;;;;;20.90;28.40;;;;;;484133;246;1208;-39
2022/03/15 03:55:39;;;;;;;;;;;21.00;28.40;;;;;;484685;246;1074;-39
2022/03/15 03:57:41;;;;;;;;;;;21.00;28.40;;;;;;484458;246;1308;-39
2022/03/15 03:59:42;;;;;;;;;;;20.90;28.40;;;;;;484251;246;1078;-39
2022/03/15 04:01:43;;;;;;;;;;;21.00;28.40;;;;;;484568;246;1054;-39
2022/03/15 04:03:44;;;;;;;;;;;21.00;28.40;;;;;;484406;246;2108;-39
2022/03/15 04:05:46;;;;;;;;;;;21.00;28.50;;;;;;484267;246;1047;-39
2022/03/15 04:07:47;;;;;;;;;;;20.90;28.40;;;;;;484515;246;1195;-39
2022/03/15 04:09:49;;;;;;;;;;;21.00;28.50;;;;;;484274;246;1191;-39
2022/03/15 04:11:50;;;;;;;;;;;21.00;28.40;;;;;;484618;246;1019;-39
2022/03/15 04:13:51;;;;;;;;;;;21.00;28.50;;;;;;484231;246;1088;-39
2022/03/15 04:15:52;;;;;;;;;;;21.00;28.50;;;;;;484708;246;1016;-39
2022/03/15 04:17:54;;;;;;;;;;;20.90;28.40;;;;;;484205;246;1085;-39
2022/03/15 04:19:55;;;;;;;;;;;21.00;28.50;;;;;;484647;246;1034;-39
2022/03/15 04:21:56;;;;;;;;;;;21.00;28.50;;;;;;484284;246;1023;-39
2022/03/15 04:23:58;;;;;;;;;;;21.00;28.40;;;;;;484618;246;2121;-39
2022/03/15 04:25:59;;;;;;;;;;;21.00;28.40;;;;;;484402;246;1047;-39
2022/03/15 04:28:00;;;;;;;;;;;20.90;28.40;;;;;;484307;246;1065;-39
2022/03/15 04:30:02;;;;;;;;;;;20.90;28.40;;;;;;484308;246;1059;-39
2022/03/15 04:32:03;;;;;;;;;;;21.00;28.50;;;;;;484608;246;2542;-39
2022/03/15 04:34:04;;;;;;;;;;;20.90;28.40;;;;;;484341;246;1045;-39
2022/03/15 04:36:06;;;;;;;;;;;21.00;28.50;;;;;;484660;246;1050;-39
2022/03/15 04:38:07;;;;;;;;;;;20.90;28.50;;;;;;484273;246;1079;-39
2022/03/15 04:40:09;;;;;;;;;;;21.00;28.50;;;;;;484348;246;1217;-39
2022/03/15 04:42:10;;;;;;;;;;;20.90;28.50;;;;;;484322;246;2316;-39
2022/03/15 04:44:11;;;;;;;;;;;20.90;28.50;;;;;;484248;246;2109;-39
2022/03/15 04:46:12;;;;;;;;;;;21.00;28.50;;;;;;484408;246;1113;-39
2022/03/15 04:48:14;;;;;;;;;;;20.90;28.40;;;;;;484347;246;1325;-39
2022/03/15 04:50:15;;;;;;;;;;;20.90;28.50;;;;;;484700;246;2368;-39
2022/03/15 04:52:17;;;;;;;;;;;20.90;28.50;;;;;;484152;246;1186;-39
2022/03/15 04:54:18;;;;;;;;;;;21.00;28.50;;;;;;484666;246;1101;-39
2022/03/15 04:56:19;;;;;;;;;;;21.00;28.50;;;;;;484162;246;1413;-39
2022/03/15 04:58:20;;;;;;;;;;;21.00;28.50;;;;;;484188;246;1061;-39
2022/03/15 05:00:22;;;;;;;;;;;21.00;28.50;;;;;;484202;246;1119;-39
2022/03/15 05:02:23;;;;;;;;;;;21.00;28.50;;;;;;484628;246;1051;-39
2022/03/15 05:04:25;;;;;;;;;;;21.00;28.40;;;;;;484138;246;2192;-39
2022/03/15 05:06:26;;;;;;;;;;;21.00;28.40;;;;;;484639;246;1063;-39
2022/03/15 05:08:27;;;;;;;;;;;21.00;28.50;;;;;;484611;246;1021;-39
2022/03/15 05:12:48;;;;;;;;;;;21.00;28.50;;;;;;484186;246;1113;-39
2022/03/15 05:14:49;;;;;;;;;;;21.00;28.50;;;;;;484623;246;1028;-39
2022/03/15 05:16:51;;;;;;;;;;;20.90;28.50;;;;;;484092;246;1104;-39
2022/03/15 05:18:53;;;;;;;;;;;20.90;28.50;;;;;;484608;246;1084;-39
2022/03/15 05:20:53;;;;;;;;;;;21.00;28.50;;;;;;484130;246;2247;-39
2022/03/15 05:22:55;;;;;;;;;;;21.00;28.50;;;;;;484310;246;1068;-39
2022/03/15 05:24:56;;;;;;;;;;;20.90;28.50;;;;;;484549;246;2199;-39
2022/03/15 05:26:58;;;;;;;;;;;20.90;28.50;;;;;;484534;246;1053;-39
2022/03/15 05:28:59;;;;;;;;;;;21.00;28.50;;;;;;484197;246;1109;-39
2022/03/15 05:31:01;;;;;;;;;;;20.90;28.40;;;;;;484457;246;1056;-39
2022/03/15 05:33:02;;;;;;;;;;;21.00;28.50;;;;;;484269;246;1014;-39
2022/03/15 05:35:03;;;;;;;;;;;21.00;28.50;;;;;;484131;246;1167;-39
2022/03/15 05:37:06;;;;;;;;;;;21.00;28.50;;;;;;484106;246;1079;-39
2022/03/15 05:39:06;;;;;;;;;;;20.90;28.50;;;;;;484042;246;1845;-39
2022/03/15 05:41:07;;;;;;;;;;;20.90;28.50;;;;;;484071;246;1142;-39
2022/03/15 05:43:09;;;;;;;;;;;20.90;28.50;;;;;;484527;246;1067;-39
2022/03/15 05:45:10;;;;;;;;;;;21.00;28.60;;;;;;484228;246;2131;-39
2022/03/15 05:47:11;;;;;;;;;;;20.90;28.50;;;;;;483946;246;1100;-39
2022/03/15 05:49:12;;;;;;;;;;;21.00;28.50;;;;;;484192;246;1269;-39
2022/03/15 05:51:14;;;;;;;;;;;21.00;28.50;;;;;;484056;246;1095;-39
2022/03/15 05:53:15;;;;;;;;;;;21.00;28.60;;;;;;483981;246;2052;-39
2022/03/15 05:55:16;;;;;;;;;;;21.00;28.50;;;;;;484194;245;1309;-39
2022/03/15 05:57:18;;;;;;;;;;;21.00;28.50;;;;;;484462;246;1196;-39
2022/03/15 05:59:19;;;;;;;;;;;21.00;28.50;;;;;;483997;246;1070;-39
2022/03/15 06:01:21;;;;;;;;;;;21.00;28.50;;;;;;484490;246;1113;-39
2022/03/15 06:03:23;;;;;;;;;;;21.00;28.50;;;;;;484034;246;2191;-39
2022/03/15 06:05:24;;;;;;;;;;;21.00;28.50;;;;;;484329;246;1062;-39
2022/03/15 06:07:26;;;;;;;;;;;21.00;28.50;;;;;;484009;246;1058;-39
2022/03/15 06:09:27;;;;;;;;;;;20.90;28.50;;;;;;483978;246;1638;-39
2022/03/15 06:11:28;;;;;;;;;;;20.90;28.50;;;;;;484141;246;1219;-39
2022/03/15 06:13:29;;;;;;;;;;;21.00;28.50;;;;;;484237;246;1056;-39
2022/03/15 06:15:31;;;;;;;;;;;21.00;28.50;;;;;;484313;246;1066;-39
2022/03/15 06:17:32;;;;;;;;;;;21.00;28.50;;;;;;483939;246;1234;-39
2022/03/15 06:19:34;;;;;;;;;;;21.00;28.50;;;;;;483922;246;1018;-39
2022/03/15 06:21:35;;;;;;;;;;;21.00;28.50;;;;;;483919;246;1094;-39
2022/03/15 06:23:36;;;;;;;;;;;21.00;28.50;;;;;;484017;246;2177;-39
2022/03/15 06:25:38;;;;;;;;;;;21.00;28.50;;;;;;483965;246;1348;-39
2022/03/15 06:27:39;;;;;;;;;;;21.00;28.50;;;;;;483842;246;1013;-39
2022/03/15 06:29:40;;;;;;;;;;;21.00;28.50;;;;;;483856;246;1069;-39
2022/03/15 06:31:42;;;;;;;;;;;20.90;28.60;;;;;;483799;246;1069;-39
2022/03/15 06:33:43;;;;;;;;;;;20.90;28.60;;;;;;483834;246;1096;-39
2022/03/15 06:35:46;;;;;;;;;;;20.90;28.60;;;;;;483770;246;1057;-39
2022/03/15 06:37:46;;;;;;;;;;;21.00;28.60;;;;;;483764;246;2005;-39
2022/03/15 06:39:48;;;;;;;;;;;21.00;28.60;;;;;;483824;246;1250;-39
2022/03/15 06:41:50;;;;;;;;;;;21.00;28.60;;;;;;483900;246;2088;-39
2022/03/15 06:43:50;;;;;;;;;;;21.00;28.50;;;;;;483764;246;2183;-39
2022/03/15 06:45:51;;;;;;;;;;;21.00;28.60;;;;;;483947;246;1042;-39
2022/03/15 06:47:52;;;;;;;;;;;21.00;28.60;;;;;;483793;246;1079;-39
2022/03/15 06:49:54;;;;;;;;;;;20.90;28.60;;;;;;483791;246;1184;-39
2022/03/15 06:51:55;;;;;;;;;;;21.00;28.60;;;;;;483825;246;1083;-39
2022/03/15 06:53:56;;;;;;;;;;;21.00;28.50;;;;;;483838;246;1071;-39
2022/03/15 06:55:58;;;;;;;;;;;21.00;28.60;;;;;;483536;246;1311;-39
2022/03/15 06:57:59;;;;;;;;;;;21.00;28.50;;;;;;483854;246;1204;-39
2022/03/15 07:00:00;;;;;;;;;;;21.00;28.60;;;;;;483675;246;1043;-39
2022/03/15 07:02:02;;;;;;;;;;;21.00;28.60;;;;;;483605;246;1294;-39
2022/03/15 07:04:03;;;;;;;;;;;21.00;28.50;;;;;;483753;246;2121;-39
2022/03/15 07:06:05;;;;;;;;;;;21.00;28.50;;;;;;483584;246;1357;-39
2022/03/15 07:08:06;;;;;;;;;;;21.00;28.50;;;;;;483582;246;1246;-39
2022/03/15 07:10:09;;;;;;;;;;;21.00;28.50;;;;;;483748;246;1154;-39
2022/03/15 07:12:09;;;;;;;;;;;21.10;28.50;;;;;;483595;246;2063;-39
2022/03/15 07:14:10;;;;;;;;;;;21.00;28.50;;;;;;483700;246;1111;-39
2022/03/15 07:16:12;;;;;;;;;;;21.00;28.50;;;;;;483784;246;1336;-39
2022/03/15 07:18:13;;;;;;;;;;;21.10;28.50;;;;;;483564;246;2396;-39
2022/03/15 07:20:14;;;;;;;;;;;21.00;28.40;;;;;;483311;246;1122;-39
2022/03/15 07:22:15;;;;;;;;;;;21.00;28.50;;;;;;483252;246;1078;-39
2022/03/15 07:24:17;;;;;;;;;;;21.00;28.50;;;;;;483396;246;2180;-39
2022/03/15 07:26:18;;;;;;;;;;;21.00;28.50;;;;;;483568;246;1198;-39
2022/03/15 07:28:19;;;;;;;;;;;21.00;28.40;;;;;;483507;246;1145;-39
2022/03/15 07:30:21;;;;;;;;;;;21.00;28.50;;;;;;483521;246;1272;-39
2022/03/15 07:32:22;;;;;;;;;;;21.10;28.50;;;;;;483491;246;1066;-39
2022/03/15 07:34:23;;;;;;;;;;;21.00;28.40;;;;;;483776;246;1091;-39
2022/03/15 07:36:24;;;;;;;;;;;21.10;28.50;;;;;;483617;246;1174;-39
2022/03/15 07:38:26;;;;;;;;;;;21.00;28.50;;;;;;483481;246;1076;-39
2022/03/15 07:40:28;;;;;;;;;;;21.10;28.50;;;;;;483495;246;1092;-39
2022/03/15 07:42:29;;;;;;;;;;;21.10;28.50;;;;;;483711;246;2261;-39
2022/03/15 07:44:30;;;;;;;;;;;21.10;28.50;;;;;;483507;246;2195;-39
2022/03/15 07:46:32;;;;;;;;;;;21.00;28.50;;;;;;483297;246;1105;-39
2022/03/15 07:48:33;;;;;;;;;;;21.10;28.50;;;;;;483450;246;1095;-39
2022/03/15 07:50:34;;;;;;;;;;;21.10;28.50;;;;;;483458;246;1106;-39
2022/03/15 07:52:36;;;;;;;;;;;21.10;28.50;;;;;;483480;246;1235;-39
2022/03/15 07:54:37;;;;;;;;;;;21.10;28.40;;;;;;483182;246;1166;-39
2022/03/15 07:56:39;;;;;;;;;;;21.10;28.50;;;;;;483303;246;1287;-39
2022/03/15 07:58:40;;;;;;;;;;;21.10;28.50;;;;;;482430;246;1259;-39
2022/03/15 08:00:41;;;;;;;;;;;21.10;28.40;;;;;;482065;246;1266;-39
2022/03/15 08:02:43;;;;;;;;;;;21.10;28.40;;;;;;481936;246;1418;-39
2022/03/15 08:04:44;;;;;;;;;;;21.10;28.40;;;;;;482108;246;2180;-39
2022/03/15 08:06:45;;;;;;;;;;;21.10;28.50;;;;;;481978;246;1202;-39
2022/03/15 08:08:48;;;;;;;;;;;21.10;28.50;;;;;;481912;246;1366;-39
2022/03/15 08:10:48;;;;;;;;;;;21.10;28.50;;;;;;481977;246;2210;-39
2022/03/15 08:12:49;;;;;;;;;;;21.10;28.50;;;;;;482122;246;1416;-39
2022/03/15 08:14:51;;;;;;;;;;;21.10;28.50;;;;;;482130;246;1263;-39
2022/03/15 08:16:52;;;;;;;;;;;21.10;28.50;;;;;;482105;246;1232;-39
2022/03/15 08:18:53;;;;;;;;;;;21.10;28.50;;;;;;482050;246;1450;-39
2022/03/15 08:20:58;;;;;;;;;;;21.10;28.50;;;;;;482063;246;1296;-39
2022/03/15 08:22:56;;;;;;;;;;;21.10;28.40;;;;;;481498;246;2348;-39
2022/03/15 08:24:57;;;;;;;;;;;21.10;28.50;;;;;;481684;246;2208;-39
2022/03/15 08:26:59;;;;;;;;;;;21.20;28.50;;;;;;481745;246;1335;-39
2022/03/15 08:29:00;;;;;;;;;;;21.10;28.50;;;;;;481768;246;1237;-39
2022/03/15 08:31:02;;;;;;;;;;;21.10;28.50;;;;;;481857;246;1396;-39
2022/03/15 08:33:03;;;;;;;;;;;21.10;28.50;;;;;;481904;246;1341;-39
2022/03/15 08:35:04;;;;;;;;;;;21.10;28.50;;;;;;481950;246;1312;-39
2022/03/15 08:37:06;;;;;;;;;;;21.10;28.60;;;;;;482079;246;1266;-39
2022/03/15 08:39:07;;;;;;;;;;;21.10;28.60;;;;;;482035;246;1297;-39
2022/03/15 08:41:08;;;;;;;;;;;21.10;28.60;;;;;;482016;246;1269;-39
2022/03/15 08:43:10;;;;;;;;;;;21.10;28.50;;;;;;481987;246;1303;-39
2022/03/15 08:45:11;;;;;;;;;;;21.10;28.60;;;;;;482001;246;2248;-39
2022/03/15 08:47:14;;;;;;;;;;;21.10;28.50;;;;;;482067;246;1471;-39
2022/03/15 08:49:14;;;;;;;;;;;21.10;28.50;;;;;;482247;246;2140;-39
2022/03/15 08:51:15;;;;;;;;;;;21.20;28.60;;;;;;482189;246;1119;-39
2022/03/15 08:53:17;;;;;;;;;;;21.10;28.50;;;;;;482708;246;1057;-39
2022/03/15 08:55:18;;;;;;;;;;;21.20;28.60;;;;;;482710;246;965;-39
2022/03/15 08:57:19;;;;;;;;;;;21.10;28.50;;;;;;482834;245;1234;-39
2022/03/15 08:59:21;;;;;;;;;;;21.20;28.60;;;;;;482521;246;937;-39
2022/03/15 09:01:22;;;;;;;;;;;21.10;28.60;;;;;;482819;246;1366;-39
2022/03/15 09:03:24;;;;;;;;;;;21.10;28.60;;;;;;482952;246;1085;-39
2022/03/15 09:05:26;;;;;;;;;;;21.10;28.60;;;;;;482420;246;2237;-39
2022/03/15 09:07:27;;;;;;;;;;;21.10;28.60;;;;;;482641;246;1817;-39
2022/03/15 09:09:28;;;;;;;;;;;21.20;28.60;;;;;;482434;246;966;-39
2022/03/15 09:11:29;;;;;;;;;;;21.10;28.60;;;;;;482790;246;1305;-39
2022/03/15 09:13:30;;;;;;;;;;;21.20;28.60;;;;;;482469;246;1061;-39
2022/03/15 09:15:32;;;;;;;;;;;21.20;28.60;;;;;;482844;246;961;-39
2022/03/15 09:17:33;;;;;;;;;;;21.10;28.60;;;;;;482815;246;1132;-39
2022/03/15 09:19:35;;;;;;;;;;;21.20;28.60;;;;;;482702;246;994;-39
2022/03/15 09:21:36;;;;;;;;;;;21.20;28.60;;;;;;482811;246;2093;-39
2022/03/15 09:23:37;;;;;;;;;;;21.20;28.60;;;;;;482728;246;1005;-39
2022/03/15 09:25:38;;;;;;;;;;;21.10;28.60;;;;;;482317;246;2172;-39
2022/03/15 09:27:40;;;;;;;;;;;21.20;28.60;;;;;;482302;246;1168;-39
2022/03/15 09:29:41;;;;;;;;;;;21.10;28.60;;;;;;482861;246;921;-39
2022/03/15 09:31:42;;;;;;;;;;;21.10;28.60;;;;;;482745;241;1277;-39
2022/03/15 09:33:44;;;;;;;;;;;21.20;28.70;;;;;;482907;246;1262;-39
2022/03/15 09:35:45;;;;;;;;;;;21.10;28.70;;;;;;482497;246;1009;-39
2022/03/15 09:37:48;;;;;;;;;;;21.10;28.70;;;;;;482696;246;1431;-39
2022/03/15 09:39:48;;;;;;;;;;;21.10;28.70;;;;;;482681;246;2098;-39
2022/03/15 09:41:49;;;;;;;;;;;21.10;28.70;;;;;;482223;246;1121;-39
2022/03/15 09:43:50;;;;;;;;;;;21.20;28.70;;;;;;482575;246;1170;-39
2022/03/15 09:45:52;;;;;;;;;;;21.10;28.60;;;;;;482762;246;2203;-39
2022/03/15 09:47:53;;;;;;;;;;;21.20;28.60;;;;;;482919;246;1018;-39
2022/03/15 09:49:56;;;;;;;;;;;21.10;28.60;;;;;;482835;246;990;-39
2022/03/15 09:51:57;;;;;;;;;;;21.10;28.60;;;;;;482907;246;924;-39
2022/03/15 09:53:58;;;;;;;;;;;21.20;28.60;;;;;;482938;246;922;-39
2022/03/15 09:56:00;;;;;;;;;;;21.20;28.70;;;;;;482915;246;912;-39
2022/03/15 09:58:01;;;;;;;;;;;21.20;28.60;;;;;;482402;242;1193;-39
2022/03/15 10:00:03;;;;;;;;;;;21.20;28.60;;;;;;482915;246;1098;-39
2022/03/15 10:02:04;;;;;;;;;;;21.20;28.60;;;;;;482683;246;1414;-39
2022/03/15 10:04:05;;;;;;;;;;;21.20;28.60;;;;;;482511;246;939;-39
2022/03/15 10:06:06;;;;;;;;;;;21.20;28.60;;;;;;482166;246;2204;-39
2022/03/15 10:08:08;;;;;;;;;;;21.20;28.60;;;;;;482420;246;1382;-39
2022/03/15 10:10:09;;;;;;;;;;;21.20;28.70;;;;;;482211;246;1466;-39
2022/03/15 10:12:11;;;;;;;;;;;21.20;28.60;;;;;;482398;246;1513;-39
2022/03/15 10:14:11;;;;;;;;;;;21.20;28.70;;;;;;482213;246;1375;-39
2022/03/15 10:16:13;;;;;;;;;;;21.20;28.70;;;;;;482589;246;1498;-39
2022/03/15 10:18:14;;;;;;;;;;;21.20;28.70;;;;;;482337;246;1043;-39
2022/03/15 10:20:17;;;;;;;;;;;21.20;28.70;;;;;;482813;246;1059;-39
2022/03/15 10:22:17;;;;;;;;;;;21.20;28.60;;;;;;482038;246;2210;-39
2022/03/15 10:24:18;;;;;;;;;;;21.20;28.70;;;;;;482398;246;952;-39
2022/03/15 10:26:20;;;;;;;;;;;21.20;28.70;;;;;;482845;246;2172;-39
2022/03/15 10:28:21;;;;;;;;;;;21.20;28.70;;;;;;482821;246;925;-39
2022/03/15 10:30:22;;;;;;;;;;;21.20;28.70;;;;;;482487;246;1713;-39
2022/03/15 10:32:23;;;;;;;;;;;21.20;28.70;;;;;;482404;246;1109;-39
2022/03/15 10:34:25;;;;;;;;;;;21.20;28.70;;;;;;482317;246;953;-39
2022/03/15 10:36:26;;;;;;;;;;;21.20;28.70;;;;;;482279;246;1330;-39
2022/03/15 10:38:27;;;;;;;;;;;21.20;28.70;;;;;;482372;246;1360;-39
2022/03/15 10:40:29;;;;;;;;;;;21.20;28.70;;;;;;482864;246;1080;-39
2022/03/15 10:42:30;;;;;;;;;;;21.20;28.80;;;;;;482971;246;989;-39
2022/03/15 10:44:31;;;;;;;;;;;21.20;28.70;;;;;;482725;246;1179;-39
2022/03/15 10:46:32;;;;;;;;;;;21.20;28.80;;;;;;482892;246;2192;-39
2022/03/15 10:48:35;;;;;;;;;;;21.20;28.70;;;;;;483013;246;970;-39
2022/03/15 10:50:36;;;;;;;;;;;21.30;28.70;;;;;;482924;246;1698;-39
2022/03/15 10:52:36;;;;;;;;;;;21.20;28.70;;;;;;482533;246;2159;-39
2022/03/15 10:54:38;;;;;;;;;;;21.20;28.70;;;;;;482475;246;952;-39
2022/03/15 10:56:40;;;;;;;;;;;21.10;28.70;;;;;;482806;246;985;-39
2022/03/15 10:58:40;;;;;;;;;;;21.20;28.80;;;;;;482333;246;2189;-39
2022/03/15 11:00:42;;;;;;;;;;;21.20;28.70;;;;;;482351;246;1219;-39
2022/03/15 11:02:43;;;;;;;;;;;21.20;28.70;;;;;;482731;246;916;-39
2022/03/15 11:04:45;;;;;;;;;;;21.20;28.80;;;;;;482440;246;964;-39
2022/03/15 11:06:46;;;;;;;;;;;21.20;28.80;;;;;;482754;246;2167;-39
2022/03/15 11:08:47;;;;;;;;;;;21.20;28.80;;;;;;482917;246;952;-39
2022/03/15 11:10:48;;;;;;;;;;;21.10;28.80;;;;;;482479;246;924;-39
2022/03/15 11:12:50;;;;;;;;;;;21.10;28.80;;;;;;482760;246;1393;-39
2022/03/15 11:14:57;;;;;;;;;;;21.20;28.80;;;;;;482538;246;1343;-39
2022/03/15 11:16:52;;;;;;;;;;;21.20;28.70;;;;;;482409;246;2107;-39
2022/03/15 11:18:54;;;;;;;;;;;21.20;28.70;;;;;;482939;246;968;-39
2022/03/15 11:20:55;;;;;;;;;;;21.20;28.70;;;;;;482881;246;2050;-39
2022/03/15 11:22:56;;;;;;;;;;;21.20;28.70;;;;;;482722;246;1042;-39
2022/03/15 11:24:58;;;;;;;;;;;21.20;28.70;;;;;;482677;246;931;-39
2022/03/15 11:26:59;;;;;;;;;;;21.20;28.80;;;;;;482071;246;2192;-39
2022/03/15 11:29:01;;;;;;;;;;;21.20;28.80;;;;;;482814;246;954;-39
2022/03/15 11:31:01;;;;;;;;;;;21.20;28.80;;;;;;482369;246;1144;-39
2022/03/15 11:33:03;;;;;;;;;;;21.20;28.70;;;;;;482657;246;1079;-39
2022/03/15 11:35:04;;;;;;;;;;;21.20;28.80;;;;;;482667;246;1435;-39
2022/03/15 11:37:06;;;;;;;;;;;21.20;28.70;;;;;;482619;246;1137;-39
2022/03/15 11:39:07;;;;;;;;;;;21.20;28.80;;;;;;482731;246;963;-39
2022/03/15 11:41:10;;;;;;;;;;;21.20;28.80;;;;;;482265;246;1201;-39
2022/03/15 11:43:10;;;;;;;;;;;21.20;28.80;;;;;;482646;246;2176;-39
2022/03/15 11:45:11;;;;;;;;;;;21.20;28.80;;;;;;482613;246;1152;-39
2022/03/15 11:47:14;;;;;;;;;;;21.20;28.80;;;;;;482905;246;2187;-39
2022/03/15 11:49:14;;;;;;;;;;;21.20;28.80;;;;;;482168;246;1728;-39
2022/03/15 11:51:15;;;;;;;;;;;21.20;28.80;;;;;;482517;246;1132;-39
2022/03/15 11:53:16;;;;;;;;;;;21.20;28.80;;;;;;482171;246;998;-39
2022/03/15 11:55:18;;;;;;;;;;;21.20;28.80;;;;;;481927;246;882;-39
2022/03/15 11:57:21;;;;;;;;;;;21.20;28.80;;;;;;481697;246;1211;-39
2022/03/15 11:59:21;;;;;;;;;;;21.20;28.80;;;;;;482007;246;2433;-39